createdAt,value
2022-11-13T00:01:46.019Z,20.38
2022-11-13T00:07:25.320Z,18.75
2022-11-13T00:13:04.352Z,19.02
2022-11-13T00:18:44.231Z,18.98
2022-11-13T00:24:23.509Z,18.88
2022-11-13T00:30:03.667Z,18.60
2022-11-13T00:35:42.786Z,17.73
2022-11-13T00:41:22.645Z,16.05
2022-11-13T00:47:01.719Z,16.73
2022-11-13T00:52:41.267Z,16.23
2022-11-13T00:58:20.676Z,17.30
2022-11-13T01:03:59.969Z,16.27
2022-11-13T01:09:39.425Z,17.42
2022-11-13T01:15:18.681Z,18.27
2022-11-13T01:21:09.752Z,18.13
2022-11-13T01:26:49.385Z,16.83
2022-11-13T01:32:28.608Z,19.45
2022-11-13T01:38:07.965Z,20.85
2022-11-13T01:43:47.628Z,19.75
2022-11-13T01:49:31.983Z,19.98
2022-11-13T01:55:14.350Z,19.40
2022-11-13T02:00:53.809Z,18.40
2022-11-13T02:06:51.133Z,19.67
2022-11-13T02:12:37.361Z,17.45
2022-11-13T02:18:18.404Z,18.77
2022-11-13T02:24:01.565Z,17.05
2022-11-13T02:29:40.665Z,17.85
2022-11-13T02:35:46.139Z,17.95
2022-11-13T02:41:25.667Z,17.50
2022-11-13T02:47:05.318Z,16.92
2022-11-13T02:52:45.467Z,17.73
2022-11-13T02:58:25.419Z,17.02
2022-11-13T03:04:04.704Z,17.42
2022-11-13T03:09:44.015Z,16.42
2022-11-13T03:15:23.591Z,15.68
2022-11-13T03:21:13.892Z,16.13
2022-11-13T03:26:53.241Z,16.30
2022-11-13T03:32:32.632Z,16.38
2022-11-13T03:38:11.869Z,14.70
2022-11-13T03:43:51.093Z,16.60
2022-11-13T03:49:30.603Z,15.75
2022-11-13T03:55:10.088Z,14.57
2022-11-13T04:00:50.323Z,14.90
2022-11-13T04:06:29.934Z,14.98
2022-11-13T04:12:09.693Z,14.85
2022-11-13T04:17:49.619Z,15.57
2022-11-13T04:23:29.133Z,16.73
2022-11-13T04:29:08.600Z,16.33
2022-11-13T04:34:48.077Z,15.90
2022-11-13T04:40:27.653Z,15.40
2022-11-13T04:46:07.093Z,14.93
2022-11-13T04:51:46.482Z,16.05
2022-11-13T04:57:26.019Z,14.15
2022-11-13T05:03:05.407Z,14.43
2022-11-13T05:08:44.774Z,14.25
2022-11-13T05:14:24.246Z,15.18
2022-11-13T05:20:04.571Z,14.20
2022-11-13T05:25:43.915Z,13.77
2022-11-13T05:31:23.746Z,14.63
2022-11-13T05:37:03.299Z,15.48
2022-11-13T05:42:42.894Z,14.27
2022-11-13T05:48:22.318Z,14.02
2022-11-13T05:54:02.285Z,14.65
2022-11-13T05:59:41.877Z,14.30
2022-11-13T06:05:22.558Z,17.85
2022-11-13T06:11:05.015Z,13.98
2022-11-13T06:16:44.595Z,14.65
2022-11-13T06:22:23.791Z,14.05
2022-11-13T06:28:03.378Z,14.10
2022-11-13T06:33:43.556Z,14.18
2022-11-13T06:39:23.417Z,15.02
2022-11-13T06:45:03.002Z,15.43
2022-11-13T06:50:48.096Z,14.00
2022-11-13T06:56:27.897Z,14.55
2022-11-13T07:02:09.046Z,13.70
2022-11-13T07:07:48.100Z,14.02
2022-11-13T07:13:28.606Z,14.85
2022-11-13T07:19:08.498Z,14.23
2022-11-13T07:24:48.058Z,13.02
2022-11-13T07:30:27.543Z,12.85
2022-11-13T07:36:08.480Z,13.90
2022-11-13T07:41:48.079Z,13.32
2022-11-13T07:47:27.612Z,14.15
2022-11-13T07:53:08.527Z,15.30
2022-11-13T07:58:47.868Z,14.18
2022-11-13T08:04:30.310Z,14.13
2022-11-13T08:10:09.904Z,14.77
2022-11-13T08:15:49.579Z,13.30
2022-11-13T08:21:28.643Z,14.07
2022-11-13T08:27:08.007Z,13.85
2022-11-13T08:32:48.199Z,15.27
2022-11-13T08:38:28.685Z,13.55
2022-11-13T08:44:10.326Z,14.02
2022-11-13T08:49:49.834Z,13.63
2022-11-13T08:55:29.416Z,13.15
2022-11-13T09:01:08.649Z,14.00
2022-11-13T09:06:49.681Z,14.07
2022-11-13T09:12:29.235Z,13.07
2022-11-13T09:18:10.043Z,13.52
2022-11-13T09:23:50.293Z,13.75
2022-11-13T09:29:29.895Z,13.55
2022-11-13T09:35:09.258Z,13.65
2022-11-13T09:40:54.258Z,13.25
2022-11-13T09:46:43.929Z,14.27
2022-11-13T09:52:31.234Z,14.13
2022-11-13T09:58:25.503Z,14.65
2022-11-13T10:04:12.031Z,14.38
2022-11-13T10:10:24.433Z,16.17
2022-11-13T10:16:30.571Z,13.75
2022-11-13T10:22:32.936Z,12.32
2022-11-13T10:28:48.927Z,13.45
2022-11-13T10:34:20.047Z,13.33
2022-11-13T10:39:59.165Z,13.48
2022-11-13T10:45:41.590Z,11.85
2022-11-13T10:51:26.815Z,13.48
2022-11-13T10:57:30.527Z,12.30
2022-11-13T11:03:24.532Z,11.05
2022-11-13T11:09:13.127Z,11.32
2022-11-13T11:15:01.417Z,12.35
2022-11-13T11:20:54.809Z,12.65
2022-11-13T11:26:45.442Z,12.63
2022-11-13T11:32:40.879Z,13.23
2022-11-13T11:38:52.095Z,12.37
2022-11-13T11:44:40.514Z,12.55
2022-11-13T11:50:34.917Z,11.63
2022-11-13T11:56:26.563Z,11.60
2022-11-13T12:02:29.841Z,11.15
2022-11-13T12:08:33.887Z,12.65
2022-11-13T12:14:16.242Z,11.82
2022-11-13T12:20:14.893Z,11.45
2022-11-13T12:26:04.368Z,10.95
2022-11-13T12:32:23.207Z,11.25
2022-11-13T12:38:23.417Z,10.65
2022-11-13T12:44:24.631Z,11.02
2022-11-13T12:50:30.423Z,11.52
2022-11-13T12:56:28.835Z,10.65
2022-11-13T13:02:08.455Z,11.05
2022-11-13T13:08:09.681Z,11.88
2022-11-13T13:14:13.399Z,10.05
2022-11-13T13:20:22.315Z,10.35
2022-11-13T13:26:23.546Z,12.43
2022-11-13T13:32:24.262Z,11.35
2022-11-13T13:38:22.107Z,12.02
2022-11-13T13:44:23.184Z,11.02
2022-11-13T13:50:06.573Z,11.57
2022-11-13T13:55:52.482Z,11.32
2022-11-13T14:01:34.418Z,12.20
2022-11-13T14:07:26.324Z,12.43
2022-11-13T14:13:05.481Z,11.65
2022-11-13T14:18:44.972Z,10.95
2022-11-13T14:24:35.217Z,9.90
2022-11-13T14:30:27.209Z,10.82
2022-11-13T14:36:07.789Z,10.63
2022-11-13T14:41:53.099Z,9.90
2022-11-13T14:47:37.621Z,10.55
2022-11-13T14:53:30.166Z,10.47
2022-11-13T14:59:27.485Z,12.52
2022-11-13T15:05:06.753Z,10.80
2022-11-13T15:10:46.471Z,11.65
2022-11-13T15:16:29.341Z,12.65
2022-11-13T15:22:26.561Z,13.68
2022-11-13T15:28:06.848Z,14.57
2022-11-13T15:33:47.114Z,16.17
2022-11-13T15:39:26.621Z,15.68
2022-11-13T15:45:06.905Z,17.73
2022-11-13T15:50:46.719Z,15.30
2022-11-13T15:56:27.318Z,16.48
2022-11-13T16:02:06.389Z,17.52
2022-11-13T16:07:46.051Z,15.75
2022-11-13T16:13:25.339Z,17.55
2022-11-13T16:19:12.866Z,17.33
2022-11-13T16:24:52.696Z,17.90
2022-11-13T16:30:31.869Z,17.10
2022-11-13T16:36:22.177Z,15.23
2022-11-13T16:42:02.147Z,17.10
2022-11-13T16:47:41.596Z,17.48
2022-11-13T16:53:23.707Z,15.02
2022-11-13T16:59:03.527Z,17.10
2022-11-13T17:04:43.999Z,17.05
2022-11-13T17:10:32.358Z,16.85
2022-11-13T17:16:13.209Z,16.77
2022-11-13T17:21:53.476Z,16.23
2022-11-13T17:27:32.415Z,18.10
2022-11-13T17:33:11.746Z,17.15
2022-11-13T17:38:51.143Z,14.57
2022-11-13T17:44:30.465Z,17.30
2022-11-13T17:50:09.641Z,16.40
2022-11-13T17:55:56.934Z,14.73
2022-11-13T18:01:36.869Z,14.80
2022-11-13T18:07:16.394Z,13.20
2022-11-13T18:12:55.895Z,14.93
2022-11-13T18:18:35.768Z,13.80
2022-11-13T18:24:17.858Z,13.50
2022-11-13T18:29:57.459Z,13.38
2022-11-13T18:35:36.947Z,12.20
2022-11-13T18:41:18.542Z,12.88
2022-11-13T18:46:57.426Z,12.63
2022-11-13T18:52:36.852Z,13.68
2022-11-13T18:58:16.086Z,13.23
2022-11-13T19:04:21.667Z,13.25
2022-11-13T19:09:58.238Z,14.13
2022-11-13T19:15:38.962Z,13.65
2022-11-13T19:21:19.701Z,12.50
2022-11-13T19:34:16.877Z,11.95
2022-11-13T19:39:55.904Z,13.40
2022-11-13T19:45:35.946Z,11.27
2022-11-13T19:51:18.035Z,11.68
2022-11-13T19:56:57.363Z,13.82
2022-11-13T20:02:36.317Z,12.95
2022-11-13T20:08:15.878Z,13.80
2022-11-13T20:13:56.112Z,12.95
2022-11-13T20:19:35.375Z,12.43
2022-11-13T20:25:14.803Z,12.77
2022-11-13T20:31:12.487Z,12.35
2022-11-13T20:36:51.902Z,11.82
2022-11-13T20:42:31.055Z,12.85
2022-11-13T20:48:10.204Z,11.57
2022-11-13T20:53:50.208Z,11.23
2022-11-13T20:59:29.561Z,10.82
2022-11-13T21:05:09.104Z,11.73
2022-11-13T21:10:48.769Z,11.02
2022-11-13T21:16:28.173Z,10.82
2022-11-13T21:22:07.392Z,10.32
2022-11-13T21:27:46.787Z,9.90
2022-11-13T21:33:25.914Z,9.45
2022-11-13T21:39:04.880Z,11.40
2022-11-13T21:44:44.325Z,10.13
2022-11-13T21:50:23.823Z,9.00
2022-11-13T21:56:03.670Z,10.35
2022-11-13T22:01:42.831Z,10.68
2022-11-13T22:07:22.202Z,10.55
2022-11-13T22:13:01.498Z,8.75
2022-11-13T22:18:40.651Z,8.43
2022-11-13T22:24:21.162Z,7.55
2022-11-13T22:30:00.844Z,6.13
2022-11-13T22:35:39.888Z,5.75
2022-11-13T22:41:24.829Z,5.60
2022-11-13T22:47:03.849Z,6.60
2022-11-13T22:52:42.946Z,4.80
2022-11-13T22:58:22.335Z,4.40
2022-11-13T23:04:03.866Z,3.47
2022-11-13T23:09:42.926Z,4.53
2022-11-13T23:15:22.736Z,4.07
2022-11-13T23:21:02.343Z,3.10
2022-11-13T23:26:41.267Z,2.28
2022-11-13T23:32:20.535Z,2.97
2022-11-13T23:38:00.481Z,2.70
2022-11-13T23:44:10.178Z,2.78
2022-11-13T23:49:39.649Z,2.45
2022-11-13T23:55:19.110Z,3.13
